Time;durP1;ratioP1;P1;durP2;ratioP2;P2;SDS_P1;SDS_P2;PMS_P1;PMS_P2;Temp;Humidity;BMP_temperature;BMP_pressure;BME280_temperature;BME280_humidity;BME280_pressure;Samples;Min_cycle;Max_cycle;Signal;HPM_P1;HPM_P2
2021/06/02 04:10:30;;;;;;;0.50;0.50;;;15.30;99.90;;;;;;5992464;23;20187;-75
2021/06/02 04:13:04;;;;;;;0.50;0.50;;;15.30;99.90;;;;;;4936278;29;20214;-74
2021/06/02 04:15:37;;;;;;;0.50;0.50;;;15.40;99.90;;;;;;4936936;29;20202;-74
2021/06/02 04:18:07;;;;;;;0.40;0.40;;;15.50;99.90;;;;;;4937016;29;20261;-75
2021/06/02 04:20:42;;;;;;;0.40;0.40;;;15.60;99.90;;;;;;4936983;29;20724;-75
2021/06/02 04:25:40;;;;;;;0.40;0.40;;;15.70;99.90;;;;;;4975673;23;20229;-72
2021/06/02 04:28:08;;;;;;;0.40;0.40;;;15.70;99.90;;;;;;4956163;29;20251;-72
2021/06/02 04:30:38;;;;;;;0.30;0.30;;;15.80;99.90;;;;;;4953131;29;20205;-71
2021/06/02 04:33:09;;;;;;;0.40;0.40;;;15.90;99.90;;;;;;4961983;28;20658;-72
2021/06/02 04:35:40;;;;;;;0.40;0.40;;;16.00;99.90;;;;;;4955316;29;20268;-72
2021/06/02 04:38:08;;;;;;;0.50;0.50;;;16.10;99.90;;;;;;4955370;29;20741;-72
2021/06/02 04:40:41;;;;;;;0.40;0.40;;;16.10;99.90;;;;;;4955542;28;20205;-72
2021/06/02 04:43:09;;;;;;;0.35;0.35;;;16.20;99.90;;;;;;4955336;29;20662;-71
2021/06/02 04:45:42;;;;;;;0.40;0.40;;;16.30;99.90;;;;;;4954785;29;20264;-72
2021/06/02 04:48:11;;;;;;;0.30;0.30;;;16.20;99.90;;;;;;4955407;29;20205;-72
2021/06/02 04:50:51;;;;;;;0.35;0.35;;;16.30;99.90;;;;;;4955338;29;20292;-72
2021/06/02 04:54:14;;;;;;;0.50;0.50;;;16.30;99.90;;;;;;4955108;29;20213;-72
2021/06/02 04:57:14;;;;;;;0.30;0.30;;;16.30;99.90;;;;;;4954680;29;20258;-72
2021/06/02 05:00:09;;;;;;;0.40;0.40;;;16.20;99.90;;;;;;4955019;29;20205;-72
2021/06/02 05:03:04;;;;;;;0.40;0.40;;;16.20;99.90;;;;;;4923783;29;20209;-72
2021/06/02 05:06:12;;;;;;;0.40;0.40;;;16.30;99.90;;;;;;4923785;29;20232;-74
2021/06/02 05:09:19;;;;;;;0.50;0.50;;;16.30;99.90;;;;;;4919202;29;20233;-72
2021/06/02 05:12:42;;;;;;;0.35;0.35;;;16.40;99.90;;;;;;4954823;29;20647;-78
2021/06/02 05:15:42;;;;;;;0.40;0.40;;;16.50;99.90;;;;;;4953094;29;20264;-71
2021/06/02 05:18:44;;;;;;;0.50;0.50;;;16.70;99.90;;;;;;4952933;29;20204;-74
2021/06/02 05:22:05;;;;;;;0.40;0.40;;;16.90;99.90;;;;;;4955206;29;20208;-72
2021/06/02 05:25:13;;;;;;;0.30;0.30;;;17.00;99.90;;;;;;4954592;29;20225;-72
2021/06/02 05:28:24;;;;;;;0.40;0.40;;;17.20;99.90;;;;;;4954661;29;20205;-72
2021/06/02 05:31:42;;;;;;;0.40;0.40;;;17.30;99.90;;;;;;4954382;29;20670;-72
2021/06/02 05:34:52;;;;;;;0.30;0.30;;;17.40;99.90;;;;;;4954590;29;20776;-71
2021/06/02 05:37:58;;;;;;;0.40;0.40;;;17.60;99.90;;;;;;4954762;29;20205;-72
2021/06/02 05:40:41;;;;;;;0.30;0.30;;;17.70;99.90;;;;;;4954516;29;20644;-72
2021/06/02 05:43:53;;;;;;;0.40;0.40;;;17.80;99.90;;;;;;4954545;29;20205;-73
2021/06/02 05:46:48;;;;;;;0.30;0.30;;;17.80;99.90;;;;;;4954397;29;20206;-74
2021/06/02 05:49:38;;;;;;;0.30;0.30;;;17.70;99.90;;;;;;4954576;29;20205;-72
2021/06/02 05:52:23;;;;;;;0.40;0.40;;;17.80;99.90;;;;;;4954078;28;20255;-72
2021/06/02 05:55:14;;;;;;;0.30;0.30;;;17.90;99.90;;;;;;4955089;29;20260;-72
2021/06/02 05:58:19;;;;;;;0.40;0.40;;;18.00;99.90;;;;;;4954386;29;20209;-73
2021/06/02 06:01:16;;;;;;;0.30;0.30;;;18.10;99.90;;;;;;4954250;29;20208;-72
2021/06/02 06:04:21;;;;;;;0.30;0.30;;;18.20;99.90;;;;;;4954204;29;20263;-73
2021/06/02 06:06:59;;;;;;;0.30;0.30;;;18.30;99.90;;;;;;4953806;29;20212;-72
2021/06/02 06:10:02;;;;;;;0.30;0.30;;;18.30;99.90;;;;;;4954115;29;20614;-72
2021/06/02 06:13:12;;;;;;;0.30;0.30;;;18.40;99.90;;;;;;4953947;29;20694;-71
2021/06/02 06:16:06;;;;;;;0.30;0.30;;;18.60;99.90;;;;;;4939205;29;20205;-73
2021/06/02 06:18:59;;;;;;;0.30;0.30;;;18.70;99.90;;;;;;4954460;29;20277;-72
2021/06/02 06:21:49;;;;;;;0.30;0.30;;;18.70;99.90;;;;;;4953920;29;20232;-72
2021/06/02 06:24:22;;;;;;;0.30;0.30;;;18.60;99.80;;;;;;4953885;29;20229;-71
2021/06/02 06:26:57;;;;;;;0.30;0.30;;;18.70;99.60;;;;;;4953810;29;20261;-72
2021/06/02 06:29:33;;;;;;;0.30;0.30;;;18.70;99.40;;;;;;4954073;29;20326;-72
2021/06/02 06:32:03;;;;;;;0.30;0.30;;;18.90;99.00;;;;;;4953722;29;20704;-72
2021/06/02 06:34:35;;;;;;;0.40;0.40;;;18.90;98.50;;;;;;4954022;29;20224;-72
2021/06/02 06:37:04;;;;;;;0.30;0.30;;;19.10;98.50;;;;;;4953603;29;20205;-72
2021/06/02 06:39:47;;;;;;;0.30;0.30;;;19.30;97.80;;;;;;4953833;29;20284;-75
2021/06/02 06:42:20;;;;;;;0.30;0.30;;;19.20;97.70;;;;;;4953664;29;20263;-72
2021/06/02 06:44:51;;;;;;;0.30;0.30;;;19.50;98.10;;;;;;4953863;29;20269;-72
2021/06/02 06:47:20;;;;;;;0.40;0.40;;;19.50;97.60;;;;;;4953698;29;20213;-72
2021/06/02 06:49:52;;;;;;;0.22;0.22;;;19.50;97.40;;;;;;4953919;29;20205;-72
2021/06/02 06:52:22;;;;;;;0.30;0.30;;;19.50;97.70;;;;;;4953782;29;20210;-72
2021/06/02 06:54:51;;;;;;;0.30;0.30;;;19.60;99.90;;;;;;4953560;29;20657;-72
2021/06/02 06:57:19;;;;;;;0.30;0.30;;;19.70;97.40;;;;;;4953690;29;20209;-71
2021/06/02 06:59:46;;;;;;;0.28;0.28;;;19.80;97.40;;;;;;4953842;29;20252;-71
2021/06/02 07:02:15;;;;;;;0.20;0.20;;;19.70;97.00;;;;;;4953542;29;20670;-72
2021/06/02 07:04:43;;;;;;;0.30;0.30;;;19.60;97.50;;;;;;4955249;28;20568;-72
2021/06/02 07:07:13;;;;;;;0.30;0.30;;;19.70;98.00;;;;;;4957048;29;20209;-72
2021/06/02 07:09:42;;;;;;;0.30;0.30;;;19.70;97.50;;;;;;4957250;29;20620;-74
2021/06/02 07:12:12;;;;;;;0.30;0.30;;;19.80;96.60;;;;;;4957331;29;20634;-72
2021/06/02 07:14:53;;;;;;;0.20;0.20;;;19.70;96.40;;;;;;4971751;28;20240;-73
2021/06/02 07:17:48;;;;;;;0.30;0.30;;;19.70;96.60;;;;;;4964964;29;20293;-72
2021/06/02 07:20:19;;;;;;;0.20;0.20;;;19.60;96.80;;;;;;4957525;29;20204;-74
2021/06/02 07:22:47;;;;;;;0.20;0.20;;;19.60;98.20;;;;;;4957261;29;20264;-72
2021/06/02 07:25:19;;;;;;;0.30;0.30;;;19.70;97.40;;;;;;4956496;29;20232;-75
2021/06/02 07:27:47;;;;;;;0.30;0.30;;;19.70;97.20;;;;;;4956891;29;20252;-71
2021/06/02 07:30:16;;;;;;;0.30;0.30;;;19.70;97.80;;;;;;4956936;29;20209;-71
2021/06/02 07:32:44;;;;;;;0.30;0.30;;;19.70;97.40;;;;;;4957027;29;20556;-72
2021/06/02 07:35:13;;;;;;;0.30;0.30;;;19.80;96.60;;;;;;4956740;29;20221;-72
2021/06/02 07:37:40;;;;;;;0.30;0.30;;;19.80;96.60;;;;;;4956742;29;20205;-72
2021/06/02 07:40:08;;;;;;;0.20;0.20;;;19.90;96.60;;;;;;4956813;29;20264;-73
2021/06/02 07:42:37;;;;;;;0.30;0.30;;;20.00;97.00;;;;;;4956483;29;20205;-72
2021/06/02 07:45:06;;;;;;;0.20;0.20;;;20.00;96.70;;;;;;4956416;29;20229;-72
2021/06/02 07:47:34;;;;;;;0.30;0.30;;;20.00;97.00;;;;;;4956417;29;20252;-71
2021/06/02 07:50:01;;;;;;;0.30;0.30;;;20.10;97.20;;;;;;4956515;29;20209;-72
2021/06/02 07:52:29;;;;;;;0.20;0.20;;;20.10;97.30;;;;;;4956527;29;20252;-72
2021/06/02 07:54:56;;;;;;;0.30;0.30;;;20.20;97.40;;;;;;4956378;29;20221;-72
2021/06/02 07:57:23;;;;;;;0.30;0.30;;;20.30;96.20;;;;;;4956243;29;20354;-71
2021/06/02 07:59:52;;;;;;;0.20;0.20;;;20.40;96.20;;;;;;4956518;29;20206;-72
2021/06/02 08:02:20;;;;;;;0.20;0.20;;;20.60;95.70;;;;;;4956464;29;20202;-71
2021/06/02 08:04:47;;;;;;;0.20;0.20;;;20.70;95.40;;;;;;4956249;29;20497;-72
2021/06/02 08:07:14;;;;;;;0.20;0.20;;;20.90;95.30;;;;;;4956167;29;20230;-73
2021/06/02 08:09:43;;;;;;;0.20;0.20;;;20.90;94.60;;;;;;4956113;29;20260;-72
2021/06/02 08:12:11;;;;;;;0.20;0.20;;;21.10;94.30;;;;;;4956140;29;20209;-72
2021/06/02 08:14:39;;;;;;;0.20;0.20;;;21.10;94.00;;;;;;4955793;28;20308;-73
2021/06/02 08:17:08;;;;;;;0.20;0.20;;;21.10;93.70;;;;;;4955975;29;20666;-73
2021/06/02 08:19:35;;;;;;;0.20;0.20;;;21.20;94.40;;;;;;4956095;29;20578;-72
2021/06/02 08:22:04;;;;;;;0.20;0.20;;;21.40;94.80;;;;;;4956020;29;20201;-72
2021/06/02 08:24:37;;;;;;;0.20;0.20;;;21.50;93.60;;;;;;4955536;29;20721;-71
2021/06/02 08:27:05;;;;;;;0.20;0.20;;;21.70;99.90;;;;;;4955726;29;20674;-71
2021/06/02 08:29:32;;;;;;;0.20;0.20;;;21.70;92.40;;;;;;4956024;29;20264;-71
2021/06/02 08:31:59;;;;;;;0.20;0.20;;;21.80;90.70;;;;;;4955952;29;20260;-72
2021/06/02 08:34:28;;;;;;;0.20;0.20;;;21.90;90.00;;;;;;4955702;29;20654;-72
2021/06/02 08:36:55;;;;;;;0.20;0.20;;;21.90;88.60;;;;;;4955397;29;20205;-71
2021/06/02 08:39:23;;;;;;;0.20;0.20;;;22.20;88.20;;;;;;4955874;29;20359;-71
2021/06/02 08:42:00;;;;;;;0.20;0.20;;;22.30;90.80;;;;;;4956280;29;20194;-72
2021/06/02 08:44:27;;;;;;;0.20;0.20;;;22.30;87.40;;;;;;4955592;29;20229;-74
2021/06/02 08:46:56;;;;;;;0.20;0.20;;;22.40;92.00;;;;;;4955404;29;20225;-71
2021/06/02 08:49:23;;;;;;;0.20;0.20;;;22.40;85.50;;;;;;4955352;29;20826;-72
2021/06/02 08:51:53;;;;;;;0.20;0.20;;;22.30;87.80;;;;;;4955747;29;20229;-71
2021/06/02 08:54:23;;;;;;;0.20;0.20;;;22.30;84.30;;;;;;4955440;29;20252;-71
2021/06/02 08:56:51;;;;;;;0.20;0.20;;;22.40;87.50;;;;;;4955280;29;20229;-71
2021/06/02 08:59:19;;;;;;;0.20;0.20;;;22.50;87.70;;;;;;4955168;29;20213;-71
2021/06/02 09:01:46;;;;;;;0.20;0.20;;;22.60;83.70;;;;;;4955299;29;20645;-71
2021/06/02 09:04:14;;;;;;;0.20;0.20;;;22.50;83.70;;;;;;4955374;29;20225;-72
2021/06/02 09:06:44;;;;;;;0.20;0.20;;;22.50;81.00;;;;;;4955061;29;20233;-71
2021/06/02 09:09:15;;;;;;;0.20;0.20;;;22.50;80.90;;;;;;4954985;29;20662;-71
2021/06/02 09:11:45;;;;;;;0.20;0.20;;;22.50;80.10;;;;;;4955117;29;20205;-72
2021/06/02 09:14:26;;;;;;;0.20;0.20;;;22.60;81.80;;;;;;4954974;29;20275;-72
2021/06/02 09:16:55;;;;;;;0.20;0.20;;;22.60;82.20;;;;;;4954906;29;20205;-73
2021/06/02 09:19:34;;;;;;;0.20;0.20;;;22.60;80.70;;;;;;4956558;29;20205;-71
2021/06/02 09:22:02;;;;;;;0.20;0.20;;;22.70;81.70;;;;;;4955619;29;20209;-71
2021/06/02 09:24:50;;;;;;;0.20;0.20;;;22.70;79.80;;;;;;4954908;29;20237;-71
2021/06/02 09:27:19;;;;;;;0.20;0.20;;;22.70;78.60;;;;;;4954222;28;20265;-71
2021/06/02 09:29:51;;;;;;;0.20;0.20;;;22.70;75.40;;;;;;4954657;29;20737;-71
2021/06/02 09:32:20;;;;;;;0.20;0.20;;;22.80;76.40;;;;;;4954842;29;20209;-72
2021/06/02 09:34:48;;;;;;;0.20;0.20;;;22.80;74.50;;;;;;4954593;29;20221;-72
2021/06/02 09:37:16;;;;;;;0.20;0.20;;;22.80;74.40;;;;;;4954335;29;20202;-72
2021/06/02 09:39:44;;;;;;;0.20;0.20;;;23.60;74.40;;;;;;4954673;29;20205;-72
2021/06/02 09:42:23;;;;;;;0.20;0.20;;;22.90;75.70;;;;;;4954799;29;20205;-72
2021/06/02 09:45:02;;;;;;;0.20;0.20;;;22.90;73.00;;;;;;4954987;29;20257;-72
2021/06/02 09:47:44;;;;;;;0.20;0.20;;;22.90;72.40;;;;;;4954562;29;20213;-72
2021/06/02 09:50:14;;;;;;;0.20;0.20;;;22.90;72.00;;;;;;4954696;29;20240;-71
2021/06/02 09:52:45;;;;;;;0.20;0.20;;;23.00;73.00;;;;;;4954724;29;20252;-72
2021/06/02 09:55:22;;;;;;;0.20;0.20;;;23.00;71.60;;;;;;4954320;29;20280;-72
2021/06/02 09:58:08;;;;;;;0.20;0.20;;;23.00;70.00;;;;;;4954330;29;20217;-72
2021/06/02 10:00:38;;;;;;;0.20;0.20;;;23.10;68.80;;;;;;4954491;29;20209;-72
2021/06/02 10:03:10;;;;;;;0.20;0.20;;;23.10;68.50;;;;;;4954206;29;20243;-73
2021/06/02 10:05:39;;;;;;;0.20;0.20;;;23.10;70.00;;;;;;4953789;29;20232;-71
2021/06/02 10:08:10;;;;;;;0.20;0.20;;;23.10;69.80;;;;;;4954229;29;20201;-72
2021/06/02 10:10:38;;;;;;;0.20;0.20;;;23.20;69.10;;;;;;4954042;29;20209;-72
2021/06/02 10:13:08;;;;;;;0.20;0.20;;;23.30;69.60;;;;;;4954304;29;20634;-73
2021/06/02 10:15:39;;;;;;;0.20;0.20;;;23.30;68.40;;;;;;4953719;29;20221;-72
2021/06/02 10:18:23;;;;;;;0.20;0.20;;;23.40;68.10;;;;;;4954227;29;20205;-72
2021/06/02 10:20:59;;;;;;;0.20;0.20;;;23.40;68.30;;;;;;4953922;29;20265;-72
2021/06/02 10:23:27;;;;;;;0.20;0.20;;;23.40;89.40;;;;;;4953753;29;20205;-72
2021/06/02 10:26:00;;;;;;;0.20;0.20;;;23.50;67.50;;;;;;4967478;23;20872;-76
2021/06/02 10:28:30;;;;;;;0.20;0.20;;;23.60;66.40;;;;;;4954110;29;20224;-76
2021/06/02 10:30:58;;;;;;;0.20;0.20;;;23.60;68.50;;;;;;4954154;29;20202;-76
2021/06/02 10:33:26;;;;;;;0.20;0.20;;;23.70;66.70;;;;;;4953893;29;20205;-76
2021/06/02 10:35:58;;;;;;;0.20;0.20;;;;;;;;;;4953433;29;20758;-76
2021/06/02 10:38:26;;;;;;;0.20;0.20;;;23.80;66.20;;;;;;4955207;28;20260;-75
2021/06/02 10:40:54;;;;;;;0.20;0.20;;;23.90;66.40;;;;;;4957737;29;20249;-75
2021/06/02 10:43:25;;;;;;;0.20;0.20;;;24.10;67.00;;;;;;4957798;29;20209;-76
2021/06/02 10:45:58;;;;;;;0.20;0.20;;;;;;;;;;4957276;29;20690;-76
2021/06/02 10:48:38;;;;;;;0.20;0.20;;;24.40;63.30;;;;;;4957954;29;20205;-76
2021/06/02 10:51:05;;;;;;;0.20;0.20;;;24.50;64.30;;;;;;4957661;29;20205;-76
2021/06/02 10:53:33;;;;;;;0.20;0.20;;;24.60;64.30;;;;;;4957790;29;20624;-76
2021/06/02 10:56:02;;;;;;;0.20;0.20;;;24.80;62.50;;;;;;4957310;29;20844;-75
2021/06/02 10:58:32;;;;;;;0.20;0.20;;;24.80;62.80;;;;;;4957808;29;20221;-75
2021/06/02 11:01:13;;;;;;;0.20;0.20;;;25.00;60.00;;;;;;4958256;29;20209;-75
2021/06/02 11:03:43;;;;;;;0.20;0.20;;;25.00;60.00;;;;;;4957431;29;20205;-75
2021/06/02 11:06:34;;;;;;;0.10;0.10;;;25.00;59.40;;;;;;4956993;29;20245;-75
2021/06/02 11:09:10;;;;;;;0.20;0.20;;;25.20;58.80;;;;;;4957307;29;20584;-75
2021/06/02 11:11:39;;;;;;;0.10;0.10;;;25.30;60.10;;;;;;4957448;29;20205;-75
2021/06/02 11:14:20;;;;;;;0.20;0.20;;;25.40;59.30;;;;;;4957156;29;20244;-75
2021/06/02 11:16:55;;;;;;;0.20;0.20;;;25.40;57.90;;;;;;4957212;29;20257;-75
2021/06/02 11:19:23;;;;;;;0.10;0.10;;;25.40;60.00;;;;;;4957172;29;20627;-75
2021/06/02 11:21:58;;;;;;;0.10;0.10;;;25.00;59.40;;;;;;4957225;29;20579;-75
2021/06/02 11:24:41;;;;;;;0.10;0.10;;;25.30;58.50;;;;;;4957061;29;20287;-75
2021/06/02 11:27:29;;;;;;;0.10;0.10;;;25.30;58.70;;;;;;4956900;29;20264;-75
2021/06/02 11:30:24;;;;;;;0.20;0.20;;;25.30;59.40;;;;;;4956878;29;20205;-75
2021/06/02 11:32:58;;;;;;;0.10;0.10;;;25.30;58.60;;;;;;4957131;29;20205;-75
2021/06/02 11:35:59;;;;;;;0.20;0.20;;;25.20;57.80;;;;;;4956632;29;20299;-75
2021/06/02 11:38:27;;;;;;;0.20;0.20;;;25.40;58.50;;;;;;4878964;29;20211;-75
2021/06/02 11:40:56;;;;;;;0.20;0.20;;;25.50;64.10;;;;;;4941592;29;20667;-76
2021/06/02 11:43:24;;;;;;;0.20;0.20;;;25.80;84.20;;;;;;4956881;29;20210;-75
2021/06/02 11:45:55;;;;;;;0.20;0.20;;;25.80;57.80;;;;;;4956369;29;20225;-75
2021/06/02 11:48:36;;;;;;;0.20;0.20;;;25.90;58.80;;;;;;4956724;29;20209;-74
2021/06/02 11:51:08;;;;;;;0.10;0.10;;;25.90;58.80;;;;;;4955791;28;20212;-75
2021/06/02 11:53:49;;;;;;;0.10;0.10;;;26.00;59.00;;;;;;4956455;29;20674;-75
2021/06/02 11:56:19;;;;;;;0.10;0.10;;;26.20;59.90;;;;;;4956291;29;20263;-75
2021/06/02 11:58:50;;;;;;;0.10;0.10;;;26.10;59.00;;;;;;4956513;29;20872;-75
2021/06/02 12:01:21;;;;;;;0.10;0.10;;;26.20;63.70;;;;;;4956585;29;20659;-75
2021/06/02 12:03:55;;;;;;;0.20;0.20;;;26.40;87.20;;;;;;4956431;29;20205;-74
2021/06/02 12:06:34;;;;;;;0.10;0.10;;;26.50;58.40;;;;;;4955944;29;20217;-74
2021/06/02 12:09:09;;;;;;;0.20;0.20;;;26.50;57.50;;;;;;4956452;29;20201;-74
2021/06/02 12:11:37;;;;;;;0.10;0.10;;;26.80;57.60;;;;;;4956462;29;20220;-74
2021/06/02 12:14:05;;;;;;;0.10;0.10;;;26.90;56.60;;;;;;4957280;29;20210;-74
2021/06/02 12:16:32;;;;;;;0.20;0.20;;;26.90;55.70;;;;;;4956613;29;20256;-74
2021/06/02 12:19:01;;;;;;;0.10;0.10;;;27.00;56.50;;;;;;4956513;29;20268;-75
2021/06/02 12:21:30;;;;;;;0.10;0.10;;;27.20;56.70;;;;;;4956326;29;20292;-75
2021/06/02 12:23:59;;;;;;;0.10;0.10;;;27.00;57.10;;;;;;4955828;29;20674;-75
2021/06/02 12:26:32;;;;;;;0.10;0.10;;;27.10;55.40;;;;;;4955676;29;20248;-75
2021/06/02 12:29:02;;;;;;;0.10;0.10;;;27.20;54.40;;;;;;4956338;29;20220;-75
2021/06/02 12:31:41;;;;;;;0.10;0.10;;;27.10;55.30;;;;;;4955964;29;20201;-74
2021/06/02 12:34:13;;;;;;;0.10;0.10;;;27.00;53.50;;;;;;4955881;29;20229;-75
2021/06/02 12:36:47;;;;;;;0.10;0.10;;;27.00;56.90;;;;;;4955461;29;20659;-74
2021/06/02 12:39:16;;;;;;;0.20;0.20;;;27.10;55.50;;;;;;4948065;29;20194;-76
2021/06/02 12:41:46;;;;;;;0.13;0.13;;;26.90;55.70;;;;;;4944991;29;20252;-75
2021/06/02 12:44:14;;;;;;;0.20;0.20;;;27.00;56.30;;;;;;4947023;29;20213;-75
2021/06/02 12:46:55;;;;;;;0.20;0.20;;;27.00;55.30;;;;;;4941362;29;20246;-75
2021/06/02 12:49:24;;;;;;;0.20;0.20;;;27.10;56.30;;;;;;4936787;29;20210;-75
2021/06/02 12:51:55;;;;;;;0.20;0.20;;;27.30;55.40;;;;;;4936613;29;20203;-75
2021/06/02 12:54:23;;;;;;;0.17;0.17;;;27.50;54.60;;;;;;4949389;29;20225;-76
2021/06/02 12:56:51;;;;;;;0.10;0.10;;;27.70;54.20;;;;;;4955320;29;20201;-77
2021/06/02 12:59:18;;;;;;;0.10;0.10;;;27.70;53.70;;;;;;4955476;29;20213;-77
2021/06/02 13:01:47;;;;;;;0.10;0.10;;;27.80;53.40;;;;;;4948854;29;20611;-76
2021/06/02 13:04:16;;;;;;;0.10;0.10;;;27.90;52.60;;;;;;4952333;29;20221;-76
2021/06/02 13:06:53;;;;;;;0.10;0.10;;;28.10;53.20;;;;;;4954973;29;20233;-77
2021/06/02 13:09:21;;;;;;;0.20;0.20;;;28.30;52.80;;;;;;4945714;29;20210;-75
2021/06/02 13:11:49;;;;;;;0.10;0.10;;;28.30;52.10;;;;;;4944519;29;20202;-76
2021/06/02 13:14:19;;;;;;;0.10;0.10;;;28.50;60.40;;;;;;4942485;29;20261;-75
2021/06/02 13:16:50;;;;;;;0.10;0.10;;;28.80;53.40;;;;;;4947005;29;20194;-77
2021/06/02 13:19:17;;;;;;;0.10;0.10;;;28.80;54.60;;;;;;4951317;29;20205;-77
2021/06/02 13:21:49;;;;;;;0.10;0.10;;;28.80;51.40;;;;;;4954884;29;20236;-77
2021/06/02 13:24:22;;;;;;;0.10;0.10;;;28.90;51.40;;;;;;4940499;29;20234;-75
2021/06/02 13:26:52;;;;;;;0.10;0.10;;;28.80;51.90;;;;;;4941704;29;20272;-76
2021/06/02 13:29:21;;;;;;;0.10;0.10;;;28.90;52.60;;;;;;4938598;29;20253;-75
2021/06/02 13:31:49;;;;;;;0.10;0.10;;;28.80;51.40;;;;;;4954641;29;20205;-75
2021/06/02 13:34:30;;;;;;;0.10;0.10;;;28.60;51.80;;;;;;4954721;29;20284;-75
2021/06/02 13:37:13;;;;;;;0.10;0.10;;;28.50;52.60;;;;;;4954128;29;20622;-75
2021/06/02 13:40:02;;;;;;;0.10;0.10;;;28.50;53.00;;;;;;4954153;29;20221;-75
2021/06/02 13:42:29;;;;;;;0.10;0.10;;;28.20;52.60;;;;;;4954668;29;20264;-75
2021/06/02 13:44:57;;;;;;;0.10;0.10;;;28.00;54.70;;;;;;4954524;29;20315;-75
2021/06/02 13:47:30;;;;;;;0.10;0.10;;;28.00;54.00;;;;;;4954388;29;20221;-74
2021/06/02 13:50:09;;;;;;;0.10;0.10;;;28.10;52.30;;;;;;4954507;29;20209;-75
2021/06/02 13:52:38;;;;;;;0.10;0.10;;;27.90;54.00;;;;;;4952235;29;20280;-74
2021/06/02 13:55:10;;;;;;;0.10;0.10;;;27.70;53.10;;;;;;4951137;29;20217;-74
2021/06/02 13:57:39;;;;;;;0.10;0.10;;;27.50;53.10;;;;;;4954789;29;20205;-78
2021/06/02 14:00:08;;;;;;;0.10;0.10;;;27.40;56.80;;;;;;4957997;29;20228;-78
2021/06/02 14:02:37;;;;;;;0.10;0.10;;;27.40;55.90;;;;;;4954226;29;20249;-76
2021/06/02 14:05:08;;;;;;;0.10;0.10;;;27.40;56.10;;;;;;4957455;29;20225;-78
2021/06/02 14:07:36;;;;;;;0.17;0.17;;;;;;;;;;4954496;29;20220;-76
2021/06/02 14:10:04;;;;;;;0.10;0.10;;;27.30;58.10;;;;;;4954219;29;20209;-72
2021/06/02 14:12:33;;;;;;;0.10;0.10;;;27.30;57.70;;;;;;4954107;28;20260;-74
2021/06/02 14:15:01;;;;;;;0.10;0.10;;;27.30;56.30;;;;;;4954157;29;20225;-73
2021/06/02 14:17:28;;;;;;;0.10;0.10;;;27.20;59.40;;;;;;4950943;29;20193;-71
2021/06/02 14:19:55;;;;;;;0.10;0.10;;;27.20;59.50;;;;;;4951094;29;20201;-76
2021/06/02 14:22:23;;;;;;;0.10;0.10;;;27.10;60.70;;;;;;4954584;29;20296;-76
2021/06/02 14:24:51;;;;;;;0.10;0.10;;;27.00;67.70;;;;;;4954321;29;20750;-73
2021/06/02 14:27:19;;;;;;;0.10;0.10;;;26.90;68.30;;;;;;4942145;29;20893;-77
2021/06/02 14:29:47;;;;;;;0.10;0.10;;;26.80;57.30;;;;;;4958508;28;20202;-76
2021/06/02 14:32:15;;;;;;;0.10;0.10;;;26.60;56.50;;;;;;4962252;28;20256;-76
2021/06/02 14:34:42;;;;;;;0.10;0.10;;;26.60;68.30;;;;;;4951846;29;20241;-72
2021/06/02 14:37:10;;;;;;;0.10;0.10;;;26.50;72.70;;;;;;4942338;29;20249;-72
2021/06/02 14:39:37;;;;;;;0.20;0.20;;;26.50;68.30;;;;;;4947066;29;20231;-74
2021/06/02 14:42:05;;;;;;;0.10;0.10;;;26.50;70.50;;;;;;4938882;29;20767;-74
2021/06/02 14:44:32;;;;;;;0.10;0.10;;;26.50;78.30;;;;;;4940331;29;20242;-72
2021/06/02 14:47:03;;;;;;;0.10;0.10;;;26.40;65.70;;;;;;4948352;29;20311;-72
2021/06/02 14:49:31;;;;;;;0.10;0.10;;;26.20;70.10;;;;;;4954353;29;20201;-73
2021/06/02 14:52:00;;;;;;;0.10;0.10;;;26.30;66.10;;;;;;4953217;29;20264;-72
2021/06/02 14:54:28;;;;;;;0.10;0.10;;;26.20;63.00;;;;;;4953434;29;20232;-72
2021/06/02 14:56:57;;;;;;;0.10;0.10;;;26.10;71.80;;;;;;4950582;29;20659;-71
2021/06/02 14:59:24;;;;;;;0.10;0.10;;;26.00;73.60;;;;;;4953455;29;20737;-71
2021/06/02 15:01:52;;;;;;;0.10;0.10;;;25.80;61.80;;;;;;4951543;29;20470;-72
2021/06/02 15:04:20;;;;;;;0.10;0.10;;;25.80;65.60;;;;;;4946207;29;20292;-73
2021/06/02 15:06:48;;;;;;;0.10;0.10;;;25.90;74.70;;;;;;4946033;29;20667;-72
2021/06/02 15:09:15;;;;;;;0.10;0.10;;;25.90;71.90;;;;;;4952374;29;20212;-73
2021/06/02 15:11:46;;;;;;;0.10;0.10;;;25.90;78.10;;;;;;4951497;29;20625;-73
2021/06/02 15:14:15;;;;;;;0.10;0.10;;;25.90;72.10;;;;;;4932888;29;20237;-73
2021/06/02 15:16:42;;;;;;;0.10;0.10;;;25.80;69.20;;;;;;4932806;29;20203;-73
2021/06/02 15:19:10;;;;;;;0.10;0.10;;;25.80;66.70;;;;;;4934068;29;20206;-72
2021/06/02 15:21:38;;;;;;;0.10;0.10;;;25.90;74.00;;;;;;4942396;29;20817;-70
2021/06/02 15:24:06;;;;;;;0.10;0.10;;;25.90;78.10;;;;;;4941806;29;20253;-72
2021/06/02 15:26:35;;;;;;;0.10;0.10;;;25.90;77.80;;;;;;4945205;29;20265;-71
2021/06/02 15:29:04;;;;;;;0.10;0.10;;;25.80;80.60;;;;;;4945325;29;20288;-73
2021/06/02 15:31:33;;;;;;;0.20;0.20;;;25.70;74.60;;;;;;4945882;29;20628;-73
2021/06/02 15:34:01;;;;;;;0.10;0.10;;;25.90;80.30;;;;;;4943705;29;20202;-73
2021/06/02 15:36:32;;;;;;;0.10;0.10;;;25.90;67.80;;;;;;4946685;29;20725;-72
2021/06/02 15:39:10;;;;;;;0.10;0.10;;;25.60;73.20;;;;;;4946500;29;20213;-72
2021/06/02 15:41:41;;;;;;;0.10;0.10;;;25.80;68.20;;;;;;4948467;29;20206;-72
2021/06/02 15:44:11;;;;;;;0.10;0.10;;;25.70;65.40;;;;;;4946911;29;20235;-73
2021/06/02 15:46:39;;;;;;;0.20;0.20;;;25.70;71.20;;;;;;4949239;29;20190;-76
2021/06/02 15:49:07;;;;;;;0.20;0.20;;;25.70;64.60;;;;;;4947597;29;20314;-76
2021/06/02 15:51:37;;;;;;;0.10;0.10;;;25.70;69.40;;;;;;4945530;29;20198;-76
2021/06/02 15:54:06;;;;;;;0.10;0.10;;;25.70;64.80;;;;;;4950785;29;20209;-76
2021/06/02 15:56:38;;;;;;;0.10;0.10;;;25.50;69.40;;;;;;4953182;29;20625;-75
2021/06/02 15:59:08;;;;;;;0.20;0.20;;;25.40;69.00;;;;;;4953476;29;20212;-76
2021/06/02 16:01:35;;;;;;;0.10;0.10;;;25.30;76.90;;;;;;4956532;29;20563;-75
2021/06/02 16:04:03;;;;;;;0.10;0.10;;;25.10;71.20;;;;;;4956005;29;20564;-75
2021/06/02 16:06:30;;;;;;;0.10;0.10;;;25.10;72.70;;;;;;4947669;29;20588;-75
2021/06/02 16:08:57;;;;;;;0.20;0.20;;;25.00;90.50;;;;;;4954963;29;20225;-78
2021/06/02 16:11:26;;;;;;;0.10;0.10;;;24.90;85.90;;;;;;4945065;29;20201;-77
2021/06/02 16:13:55;;;;;;;0.10;0.10;;;24.90;80.70;;;;;;4956790;29;20205;-77
2021/06/02 16:16:22;;;;;;;0.10;0.10;;;24.90;77.20;;;;;;4956455;29;20670;-79
2021/06/02 16:18:50;;;;;;;0.10;0.10;;;24.80;75.10;;;;;;4956614;29;20197;-78
2021/06/02 16:21:17;;;;;;;0.10;0.10;;;25.00;81.20;;;;;;4956594;29;20229;-78
2021/06/02 16:23:45;;;;;;;0.10;0.10;;;25.10;72.50;;;;;;4957652;29;20213;-77
2021/06/02 16:26:14;;;;;;;0.10;0.10;;;25.20;73.40;;;;;;4986005;23;20241;-80
2021/06/02 16:28:45;;;;;;;0.10;0.10;;;25.10;69.00;;;;;;4960431;29;20229;-79
2021/06/02 16:31:14;;;;;;;0.10;0.10;;;25.20;71.80;;;;;;4956473;29;20202;-81
2021/06/02 16:33:44;;;;;;;0.15;0.15;;;25.30;73.90;;;;;;4925030;29;20543;-81
2021/06/02 16:36:14;;;;;;;0.20;0.20;;;25.40;75.40;;;;;;4924308;29;20237;-82
2021/06/02 16:38:42;;;;;;;0.20;0.20;;;25.70;80.50;;;;;;4926090;29;20199;-81
2021/06/02 16:41:30;;;;;;;0.20;0.20;;;25.90;72.30;;;;;;4906431;29;20278;-82
2021/06/02 16:44:01;;;;;;;0.20;0.20;;;26.40;69.50;;;;;;4906847;29;20259;-81
2021/06/02 16:46:30;;;;;;;0.17;0.17;;;26.30;68.70;;;;;;4906300;29;20223;-81
2021/06/02 16:48:57;;;;;;;0.10;0.10;;;26.50;71.00;;;;;;4906143;29;20684;-82
2021/06/02 16:51:25;;;;;;;0.10;0.10;;;27.20;65.60;;;;;;4907811;29;20207;-83
2021/06/02 16:53:57;;;;;;;0.20;0.20;;;27.50;66.90;;;;;;4906992;29;20213;-83
2021/06/02 16:56:25;;;;;;;0.10;0.10;;;26.60;63.90;;;;;;4905044;29;20354;-82
2021/06/02 16:58:53;;;;;;;0.10;0.10;;;27.70;64.50;;;;;;4905235;29;20210;-82
2021/06/02 17:01:23;;;;;;;0.10;0.10;;;27.60;71.00;;;;;;4915557;29;20258;-81
2021/06/02 17:03:53;;;;;;;0.10;0.10;;;26.70;65.60;;;;;;4924114;29;20202;-82
2021/06/02 17:06:21;;;;;;;0.10;0.10;;;27.20;69.10;;;;;;4924493;29;20258;-81
2021/06/02 17:08:48;;;;;;;0.10;0.10;;;27.60;66.40;;;;;;4924446;29;20215;-83
2021/06/02 17:11:17;;;;;;;0.10;0.10;;;26.80;64.10;;;;;;4926341;29;20254;-83
2021/06/02 17:13:46;;;;;;;0.10;0.10;;;26.60;67.20;;;;;;4927078;29;20203;-82
2021/06/02 17:16:13;;;;;;;0.10;0.10;;;26.90;68.10;;;;;;4925628;29;20211;-82
2021/06/02 17:18:47;;;;;;;0.10;0.10;;;26.70;65.80;;;;;;4925608;29;20203;-82
2021/06/02 17:21:21;;;;;;;0.10;0.10;;;26.60;65.80;;;;;;4925642;29;20262;-83
2021/06/02 17:23:49;;;;;;;0.10;0.10;;;26.90;72.20;;;;;;4924190;29;20210;-83
2021/06/02 17:26:18;;;;;;;0.10;0.10;;;27.20;65.90;;;;;;4923813;29;20215;-81
2021/06/02 17:28:47;;;;;;;0.10;0.10;;;26.70;65.40;;;;;;4924499;29;20226;-82
2021/06/02 17:31:15;;;;;;;0.10;0.10;;;26.50;65.50;;;;;;4927012;29;20211;-81
2021/06/02 17:33:44;;;;;;;0.10;0.10;;;26.30;72.00;;;;;;4926606;29;20195;-82